This is the latest recevied weather packets stored in our database for station/object GW1597. If no packets are shown the sender has not sent any weather packets the latest 10 day(s).
| Time | Temp. | Humidity | Pressure | Rain* | Wind** | Luminosity | Snow |
|---|---|---|---|---|---|---|---|
| 1777727567 | 7.22° C | 84% | 990.1 hPa | 0 mm | - | - | - |
| 1777726834 | 6.67° C | 89% | 990.5 hPa | 0 mm | - | - | - |
| 1777723604 | 5° C | 94% | 990.5 hPa | 0 mm | - | - | - |
| 1777722891 | 4.44° C | 94% | 990.1 hPa | 0 mm | - | - | - |
| 1777722152 | 4.44° C | 94% | 990.1 hPa | 0 mm | - | - | - |
| 1777717127 | 3.33° C | 94% | 989.8 hPa | 0 mm | - | - | - |
| 1777716391 | 3.33° C | 93% | 990.5 hPa | 0 mm | - | - | - |
| 1777705944 | 6.11° C | 85% | 989.8 hPa | 0 mm | - | - | - |
| 1777701647 | 8.33° C | 78% | 990.1 hPa | 0 mm | - | - | - |
| 1777701288 | 8.33° C | 75% | 990.5 hPa | 0 mm | - | - | - |
| 1777699821 | 8.33° C | 77% | 990.1 hPa | 0 mm | - | - | - |
| 1777698388 | 8.89° C | 73% | 990.1 hPa | 0 mm | - | - | - |
| 1777695875 | 11.11° C | 62% | 990.5 hPa | 0 mm | - | - | - |
| 1777691175 | 12.22° C | 68% | 990.1 hPa | 0 mm | - | - | - |
| 1777681112 | 14.44° C | 58% | 987.1 hPa | 0 mm | - | - | - |
| 1777680766 | 14.44° C | 59% | 987.1 hPa | 0 mm | - | - | - |
| 1777679693 | 15° C | 61% | 986.4 hPa | 0 mm | - | - | - |
| 1777678973 | 15° C | 60% | 986.4 hPa | 0 mm | - | - | - |
| 1777674654 | 16.67° C | 56% | 985.7 hPa | 0 mm | - | - | - |
| 1777671758 | 19.44° C | 46% | 984.7 hPa | 0 mm | - | - | - |
| 1777661322 | 21.11° C | 41% | 985.4 hPa | 0 mm | - | - | - |
| 1777660943 | 20° C | 34% | 985.4 hPa | 0 mm | - | - | - |
| 1777658814 | 21.11° C | 37% | 985.4 hPa | 0 mm | - | - | - |
| 1777653757 | 18.89° C | 41% | 986.4 hPa | 0 mm | - | - | - |
| 1777646530 | 11.11° C | 74% | 988.4 hPa | 0 mm | - | - | - |
* Rain since midnight (hover to see other rain measurements)
** Current wind speed in m/s (hover to see current wind gust speed)